Time;durP1;ratioP1;P1;durP2;ratioP2;P2;SDS_P1;SDS_P2;PMS_P1;PMS_P2;Temp;Humidity;BMP_temperature;BMP_pressure;BME280_temperature;BME280_humidity;BME280_pressure;Samples;Min_cycle;Max_cycle;Signal;HPM_P1;HPM_P2
2021/12/02 00:01:05;;;;;;;3.28;1.80;;;;;;;-2.62;90.63;98293.97;5053752;28;20025;-83
2021/12/02 00:03:30;;;;;;;4.90;2.38;;;;;;;-2.59;90.08;98315.63;5042651;28;20528;-82
2021/12/02 00:05:56;;;;;;;5.45;2.50;;;;;;;-2.53;90.64;98319.16;5053095;28;20017;-83
2021/12/02 00:08:21;;;;;;;6.40;2.20;;;;;;;-2.50;90.53;98308.00;5054456;28;20033;-81
2021/12/02 00:10:46;;;;;;;4.55;1.60;;;;;;;-2.45;90.72;98302.72;5046954;28;20040;-82
2021/12/02 00:13:12;;;;;;;2.78;1.60;;;;;;;-2.43;90.27;98313.13;5040393;28;20056;-83
2021/12/02 00:16:23;;;;;;;4.22;1.80;;;;;;;-2.39;90.86;98317.72;5056992;28;20353;-83
2021/12/02 00:21:07;;;;;;;3.25;2.13;;;;;;;-2.33;90.51;98329.25;5048734;28;20023;-83
2021/12/02 00:23:41;;;;;;;5.53;1.80;;;;;;;-2.27;90.64;98321.03;5063814;28;20029;-83
2021/12/02 00:26:12;;;;;;;2.45;1.42;;;;;;;-2.27;90.80;98323.69;5053191;28;20123;-82
2021/12/02 00:28:38;;;;;;;5.10;1.75;;;;;;;-2.24;90.59;98333.91;5049775;28;20480;-83
2021/12/02 00:31:03;;;;;;;6.40;1.75;;;;;;;-2.19;90.69;98333.13;5054364;28;20074;-83
2021/12/02 00:33:30;;;;;;;1.42;1.00;;;;;;;-2.18;90.81;98323.25;5055124;28;20495;-83
2021/12/02 00:35:55;;;;;;;2.80;1.55;;;;;;;-2.17;90.95;98331.03;5043888;28;20025;-81
2021/12/02 00:38:22;;;;;;;3.33;1.67;;;;;;;-2.14;90.54;98332.38;5058883;28;20040;-83
2021/12/02 00:40:48;;;;;;;3.83;1.77;;;;;;;-2.12;90.71;98331.09;5061146;28;20055;-82
2021/12/02 00:43:14;;;;;;;3.45;1.55;;;;;;;-2.09;90.61;98329.78;5061700;28;20032;-82
2021/12/02 00:45:40;;;;;;;2.10;1.30;;;;;;;-2.07;90.66;98328.47;5062809;28;20099;-81
2021/12/02 00:48:07;;;;;;;4.32;1.92;;;;;;;-2.05;90.91;98333.53;5055203;28;20025;-83
2021/12/02 00:50:32;;;;;;;1.80;1.10;;;;;;;-2.04;90.89;98348.50;5061217;28;20070;-83
2021/12/02 00:52:58;;;;;;;3.53;1.40;;;;;;;-2.01;90.74;98332.00;5025263;28;20020;-82
2021/12/02 00:55:24;;;;;;;2.50;1.45;;;;;;;-1.99;90.63;98358.41;5055946;28;20025;-81
2021/12/02 00:57:49;;;;;;;4.63;1.92;;;;;;;-1.99;90.66;98350.41;5053172;28;20129;-82
2021/12/02 01:00:15;;;;;;;3.53;1.33;;;;;;;-1.98;90.82;98363.53;5055796;28;20468;-82
2021/12/02 01:02:40;;;;;;;2.70;1.23;;;;;;;-1.99;90.52;98372.59;5056216;28;20059;-82
2021/12/02 01:05:06;;;;;;;3.35;1.27;;;;;;;-1.98;90.63;98363.53;5032131;28;20099;-83
2021/12/02 01:07:32;;;;;;;2.17;1.15;;;;;;;-1.99;90.67;98369.94;5045576;28;20037;-83
2021/12/02 01:09:57;;;;;;;3.15;1.60;;;;;;;-1.99;90.55;98372.59;5053484;28;20032;-83
2021/12/02 01:12:22;;;;;;;3.28;1.75;;;;;;;-1.95;90.34;98373.69;5030720;28;20045;-83
2021/12/02 01:14:48;;;;;;;1.58;1.10;;;;;;;-1.92;90.48;98389.19;5053150;28;20045;-84
2021/12/02 01:17:14;;;;;;;4.47;1.50;;;;;;;-1.89;90.76;98396.72;5062071;28;20235;-83
2021/12/02 01:19:39;;;;;;;2.65;1.02;;;;;;;-1.89;90.44;98383.34;5049440;28;20016;-82
2021/12/02 01:22:05;;;;;;;2.55;0.93;;;;;;;-1.89;90.88;98393.22;5064230;28;20075;-84
2021/12/02 01:24:30;;;;;;;2.72;1.38;;;;;;;-1.89;90.88;98431.41;5044716;28;20450;-84
2021/12/02 01:26:55;;;;;;;1.60;0.98;;;;;;;-1.89;90.94;98404.72;5050716;28;20036;-82
2021/12/02 01:29:22;;;;;;;1.23;0.60;;;;;;;-1.89;90.74;98423.41;5038852;28;20082;-83
2021/12/02 01:31:52;;;;;;;1.85;1.00;;;;;;;-1.91;90.99;98400.69;5057809;28;20489;-82
2021/12/02 01:34:21;;;;;;;3.00;1.95;;;;;;;-1.89;90.98;98415.41;5048017;28;20039;-82
2021/12/02 01:36:46;;;;;;;2.42;1.48;;;;;;;-1.87;90.98;98417.84;5029269;28;20020;-82
2021/12/02 01:39:12;;;;;;;3.90;0.85;;;;;;;-1.85;91.14;98415.72;5053833;28;20142;-83
2021/12/02 01:41:45;;;;;;;2.13;1.30;;;;;;;-1.86;90.87;98425.56;5023204;28;20033;-83
2021/12/02 01:44:12;;;;;;;2.55;1.08;;;;;;;-1.83;91.24;98419.75;5051619;28;20070;-82
2021/12/02 01:46:39;;;;;;;0.93;0.85;;;;;;;-1.79;90.91;98428.06;5032449;28;20036;-83
2021/12/02 01:49:04;;;;;;;1.67;0.73;;;;;;;-1.77;91.04;98438.47;5065248;28;20095;-84
2021/12/02 01:51:41;;;;;;;3.38;0.93;;;;;;;-1.74;91.17;98422.78;5040381;28;20027;-83
2021/12/02 01:54:08;;;;;;;1.27;0.75;;;;;;;-1.74;90.71;98452.16;5048578;28;20028;-82
2021/12/02 01:56:48;;;;;;;2.05;0.70;;;;;;;-1.72;90.91;98431.34;5064361;28;20439;-85
2021/12/02 01:59:26;;;;;;;0.98;0.82;;;;;;;-1.69;91.26;98435.34;5031601;28;20033;-82
2021/12/02 02:01:55;;;;;;;2.33;1.45;;;;;;;-1.69;91.21;98443.38;5045582;28;20478;-84
2021/12/02 02:04:23;;;;;;;0.85;0.77;;;;;;;-1.68;91.12;98463.69;5049015;28;20025;-83
2021/12/02 02:07:02;;;;;;;3.03;1.00;;;;;;;-1.66;91.32;98465.06;5071212;28;20430;-83
2021/12/02 02:09:29;;;;;;;2.30;1.30;;;;;;;-1.63;91.03;98477.13;5048874;28;20036;-83
2021/12/02 02:11:55;;;;;;;1.83;1.10;;;;;;;-1.62;91.19;98478.72;5050267;28;20028;-83
2021/12/02 02:14:21;;;;;;;1.90;1.23;;;;;;;-1.61;91.15;98491.84;5048418;28;20497;-82
2021/12/02 02:16:48;;;;;;;2.47;0.98;;;;;;;-1.61;91.15;98481.16;5048070;28;20100;-83
2021/12/02 02:19:13;;;;;;;1.02;0.88;;;;;;;-1.59;91.25;98467.53;5052106;28;20061;-83
2021/12/02 02:21:40;;;;;;;1.90;1.27;;;;;;;-1.58;91.13;98486.00;5015590;28;20030;-82
2021/12/02 02:24:08;;;;;;;2.17;0.50;;;;;;;-1.56;90.83;98483.03;5037451;28;20025;-83
2021/12/02 02:26:35;;;;;;;1.27;0.70;;;;;;;-1.54;90.96;98483.59;5050299;28;20538;-83
2021/12/02 02:29:01;;;;;;;1.17;0.85;;;;;;;-1.57;91.29;98492.13;5051455;28;20367;-82
2021/12/02 02:31:28;;;;;;;2.78;1.05;;;;;;;-1.58;90.84;98495.88;5050681;28;20116;-83
2021/12/02 02:33:53;;;;;;;1.77;0.80;;;;;;;-1.61;90.89;98491.84;5037023;28;20017;-81
2021/12/02 02:36:20;;;;;;;0.90;0.60;;;;;;;-1.61;90.82;98491.00;5045419;28;20474;-83
2021/12/02 02:38:54;;;;;;;0.90;0.47;;;;;;;-1.65;90.39;98501.38;5034229;28;20025;-82
2021/12/02 02:41:21;;;;;;;1.52;0.93;;;;;;;-1.68;90.18;98511.78;5039142;28;20166;-82
2021/12/02 02:43:51;;;;;;;2.13;1.30;;;;;;;-1.71;90.42;98496.25;5038971;28;20024;-83
2021/12/02 02:46:24;;;;;;;2.58;0.65;;;;;;;-1.75;90.08;98511.16;5050984;28;20235;-83
2021/12/02 02:48:49;;;;;;;1.75;0.80;;;;;;;-1.81;90.05;98519.09;5024374;28;20360;-83
2021/12/02 02:51:15;;;;;;;1.67;1.17;;;;;;;-1.85;89.75;98527.88;5066531;28;20032;-83
2021/12/02 02:53:41;;;;;;;1.95;1.00;;;;;;;-1.87;89.99;98530.78;5062088;28;20037;-83
2021/12/02 02:56:18;;;;;;;2.03;1.10;;;;;;;-1.90;89.77;98539.28;5057784;28;20029;-83
2021/12/02 03:06:57;;;;;;;2.35;1.05;;;;;;;-1.96;89.92;98558.97;5050274;28;20090;-83
2021/12/02 03:11:56;;;;;;;4.50;1.83;;;;;;;-1.99;89.47;98543.44;5068320;28;20025;-84
2021/12/02 03:14:34;;;;;;;2.25;1.33;;;;;;;-2.02;89.66;98554.59;5053959;28;20494;-84
2021/12/02 03:16:59;;;;;;;1.52;0.88;;;;;;;-2.02;89.62;98551.94;5059506;28;20024;-84
2021/12/02 03:19:28;;;;;;;1.58;0.80;;;;;;;-2.04;89.98;98572.75;5053046;28;20078;-83
2021/12/02 03:21:54;;;;;;;1.73;0.98;;;;;;;-2.04;89.80;98568.22;5058923;28;20052;-83
2021/12/02 03:24:19;;;;;;;2.78;1.02;;;;;;;-2.00;89.67;98584.53;5047430;28;20069;-85
2021/12/02 03:26:45;;;;;;;7.05;1.25;;;;;;;-2.00;89.75;98579.19;5054568;28;20509;-84
2021/12/02 03:29:10;;;;;;;3.10;0.75;;;;;;;-2.00;89.54;98579.19;5036545;28;20033;-83
2021/12/02 03:31:35;;;;;;;0.85;0.68;;;;;;;-2.00;89.76;98579.19;5055494;28;20465;-81
2021/12/02 03:34:01;;;;;;;0.47;0.47;;;;;;;-2.01;89.90;98593.59;5054249;28;20028;-84
2021/12/02 03:36:27;;;;;;;2.00;1.60;;;;;;;-1.99;89.89;98591.50;5037480;28;20032;-83
2021/12/02 03:38:52;;;;;;;6.72;1.52;;;;;;;-1.98;89.65;98593.13;5043143;28;20033;-83
2021/12/02 03:41:17;;;;;;;2.25;1.08;;;;;;;-1.96;90.03;98593.69;5037624;28;20043;-82
2021/12/02 03:43:44;;;;;;;1.13;0.93;;;;;;;-1.94;89.98;98590.75;5020080;28;20453;-83
2021/12/02 03:46:12;;;;;;;2.40;1.40;;;;;;;-1.94;89.48;98609.44;5054291;28;20513;-83
2021/12/02 03:48:38;;;;;;;1.20;0.80;;;;;;;-1.92;89.61;98623.34;5053881;28;20119;-83
2021/12/02 03:51:06;;;;;;;1.42;0.93;;;;;;;-1.90;89.43;98631.94;5055377;28;20048;-82
2021/12/02 03:53:31;;;;;;;1.50;0.73;;;;;;;-1.89;89.56;98623.66;5046400;28;20029;-83
2021/12/02 03:55:57;;;;;;;1.55;1.00;;;;;;;-1.86;89.70;98636.53;5046201;28;20547;-83
2021/12/02 03:58:22;;;;;;;1.52;1.05;;;;;;;-1.80;89.91;98637.44;5046280;28;20025;-84
2021/12/02 04:00:48;;;;;;;1.70;0.93;;;;;;;-1.78;89.66;98629.97;5049941;28;20021;-82
2021/12/02 04:03:13;;;;;;;2.50;0.90;;;;;;;-1.75;89.67;98648.16;5053006;28;20039;-84
2021/12/02 04:05:38;;;;;;;1.67;0.85;;;;;;;-1.72;89.88;98642.34;5054669;28;20075;-84
2021/12/02 04:08:04;;;;;;;1.95;1.13;;;;;;;-1.71;89.85;98648.50;5048970;28;20025;-83
2021/12/02 04:10:31;;;;;;;1.02;0.60;;;;;;;-1.68;89.63;98666.69;5045797;28;20493;-83
2021/12/02 04:15:37;;;;;;;1.42;0.95;;;;;;;-1.69;89.27;98684.59;5055084;28;20391;-84
2021/12/02 04:18:02;;;;;;;2.78;0.90;;;;;;;-1.66;89.39;98676.09;5051766;28;20032;-82
2021/12/02 04:20:28;;;;;;;2.15;0.90;;;;;;;-1.67;89.49;98689.69;5056285;28;20549;-84
2021/12/02 04:22:54;;;;;;;2.15;1.05;;;;;;;-1.67;89.24;98684.34;5052937;28;20029;-84
2021/12/02 04:25:20;;;;;;;1.50;0.82;;;;;;;-1.67;89.23;98689.69;5053459;28;20513;-82
2021/12/02 04:27:45;;;;;;;1.08;0.85;;;;;;;-1.67;88.97;98687.00;5043203;28;20029;-84
2021/12/02 04:30:14;;;;;;;1.50;0.93;;;;;;;-1.67;89.25;98679.78;5054254;28;20386;-83
2021/12/02 04:32:39;;;;;;;1.17;0.70;;;;;;;-1.67;89.00;98705.69;5054622;28;20040;-83
2021/12/02 04:35:05;;;;;;;1.48;1.00;;;;;;;-1.65;88.82;98698.25;5054316;28;20029;-84
2021/12/02 04:37:31;;;;;;;3.28;1.10;;;;;;;-1.64;88.92;98707.88;5038878;28;20039;-83
2021/12/02 04:39:57;;;;;;;3.55;1.02;;;;;;;-1.64;88.72;98711.38;5046682;28;20082;-84
2021/12/02 04:42:22;;;;;;;1.30;0.85;;;;;;;-1.62;88.73;98705.78;5052953;28;20075;-84
2021/12/02 04:44:47;;;;;;;1.08;0.73;;;;;;;-1.60;88.85;98706.34;5043346;28;20032;-82
2021/12/02 04:47:13;;;;;;;1.98;0.82;;;;;;;-1.59;88.57;98706.09;5054827;28;20024;-83
2021/12/02 04:49:38;;;;;;;2.05;0.98;;;;;;;-1.59;88.19;98729.31;5031171;28;20032;-84
2021/12/02 04:52:04;;;;;;;0.60;0.60;;;;;;;-1.57;88.29;98711.19;5060595;28;20032;-82
2021/12/02 04:54:29;;;;;;;1.55;0.70;;;;;;;-1.59;88.06;98730.13;5038875;28;20039;-84
2021/12/02 04:56:55;;;;;;;1.30;0.70;;;;;;;-1.56;88.29;98731.50;5050915;28;20036;-82
2021/12/02 04:59:20;;;;;;;2.75;0.90;;;;;;;-1.54;88.24;98732.06;5052953;28;20017;-84
2021/12/02 05:01:46;;;;;;;2.17;0.90;;;;;;;-1.50;88.08;98727.03;5064712;28;20053;-83
2021/12/02 05:04:11;;;;;;;1.02;0.73;;;;;;;-1.46;88.10;98738.88;5052630;28;20053;-83
2021/12/02 05:06:37;;;;;;;0.80;0.68;;;;;;;-1.43;88.13;98743.72;5048976;28;20045;-83
2021/12/02 05:09:02;;;;;;;1.95;1.23;;;;;;;-1.43;88.07;98749.88;5037915;28;20028;-83
2021/12/02 05:11:28;;;;;;;3.17;0.90;;;;;;;-1.44;88.07;98745.59;5037178;28;20021;-83
2021/12/02 05:13:53;;;;;;;1.23;0.73;;;;;;;-1.49;87.72;98763.41;5045666;28;20508;-83
2021/12/02 05:16:18;;;;;;;2.45;1.20;;;;;;;-1.51;87.84;98763.66;5053311;28;20029;-84
2021/12/02 05:18:45;;;;;;;1.73;1.17;;;;;;;-1.54;87.63;98764.13;5052536;28;20049;-83
2021/12/02 05:21:10;;;;;;;0.38;0.38;;;;;;;-1.53;87.69;98765.75;5051016;28;20044;-83
2021/12/02 05:23:36;;;;;;;1.38;0.73;;;;;;;-1.53;87.56;98773.75;5052365;28;20478;-83
2021/12/02 05:26:01;;;;;;;0.82;0.50;;;;;;;-1.55;87.49;98772.41;5053290;28;20470;-84
2021/12/02 05:28:27;;;;;;;2.10;0.75;;;;;;;-1.59;87.41;98766.72;5052116;28;20017;-82
2021/12/02 05:30:52;;;;;;;2.10;0.90;;;;;;;-1.62;87.68;98784.06;5051855;28;20024;-84
2021/12/02 05:33:17;;;;;;;0.95;0.60;;;;;;;-1.67;86.81;98781.31;5050791;28;20032;-83
2021/12/02 05:35:43;;;;;;;1.73;0.88;;;;;;;-1.70;87.22;98783.66;5052954;28;20020;-83
2021/12/02 05:38:09;;;;;;;3.60;0.57;;;;;;;-1.75;86.97;98789.72;5050434;28;20051;-83
2021/12/02 05:40:34;;;;;;;0.95;0.88;;;;;;;-1.81;87.03;98796.03;5052767;28;20033;-83
2021/12/02 05:43:00;;;;;;;1.15;0.60;;;;;;;-1.83;86.98;98800.81;5071281;28;20024;-82
2021/12/02 05:45:25;;;;;;;1.77;0.60;;;;;;;-1.85;86.38;98794.91;5052546;28;20394;-83
2021/12/02 05:47:50;;;;;;;0.73;0.52;;;;;;;-1.88;86.19;98801.56;5051939;28;20021;-83
2021/12/02 05:50:16;;;;;;;0.45;0.45;;;;;;;-1.92;86.10;98816.41;5050919;28;20032;-81
2021/12/02 05:52:41;;;;;;;2.05;0.30;;;;;;;-1.92;86.20;98821.75;5049728;28;20381;-83
2021/12/02 05:55:07;;;;;;;1.85;0.95;;;;;;;-1.96;86.14;98815.28;5053811;28;20028;-81
2021/12/02 05:57:32;;;;;;;1.95;0.90;;;;;;;-1.96;86.15;98822.50;5034708;28;20066;-82
2021/12/02 05:59:58;;;;;;;0.90;0.52;;;;;;;-1.98;85.98;98828.06;5044447;28;20031;-82
2021/12/02 06:02:24;;;;;;;0.68;0.50;;;;;;;-1.99;86.15;98831.78;5054341;28;20028;-81
2021/12/02 06:04:52;;;;;;;0.40;0.38;;;;;;;-2.02;85.82;98842.94;5045126;28;20066;-82
2021/12/02 06:07:18;;;;;;;0.60;0.50;;;;;;;-2.04;85.68;98831.69;5054614;28;20028;-83
2021/12/02 06:09:44;;;;;;;0.85;0.50;;;;;;;-2.03;85.49;98846.66;5044133;28;20016;-82
2021/12/02 06:12:09;;;;;;;1.60;0.57;;;;;;;-2.05;85.37;98846.91;5060248;28;20048;-83
2021/12/02 06:14:35;;;;;;;1.00;0.65;;;;;;;-2.08;85.54;98865.25;5051140;28;20049;-82
2021/12/02 06:17:00;;;;;;;2.75;0.60;;;;;;;-2.09;85.59;98864.44;5052278;28;20433;-83
2021/12/02 06:19:26;;;;;;;0.85;0.68;;;;;;;-2.07;85.68;98874.91;5051111;28;20025;-81
2021/12/02 06:21:51;;;;;;;0.63;0.50;;;;;;;-2.08;85.50;98886.59;5050341;28;20470;-82
2021/12/02 06:24:17;;;;;;;0.68;0.50;;;;;;;-2.10;85.12;98894.03;5051312;28;20029;-81
2021/12/02 06:26:43;;;;;;;2.28;0.82;;;;;;;-2.15;85.49;98897.44;5051449;28;20147;-82
2021/12/02 06:29:08;;;;;;;1.30;0.40;;;;;;;-2.20;85.13;98910.69;5031371;28;20025;-83
2021/12/02 06:31:34;;;;;;;1.33;0.40;;;;;;;-2.24;85.10;98915.69;5052086;28;20079;-81
2021/12/02 06:33:59;;;;;;;0.85;0.68;;;;;;;-2.29;85.06;98928.94;5047411;28;20009;-82
2021/12/02 06:36:24;;;;;;;0.80;0.40;;;;;;;-2.32;85.08;98924.06;5052120;28;20025;-82
2021/12/02 06:38:50;;;;;;;0.70;0.65;;;;;;;-2.38;84.52;98932.97;5051072;28;20088;-82
2021/12/02 06:41:16;;;;;;;0.88;0.40;;;;;;;-2.41;84.66;98930.78;5052057;28;20029;-82
2021/12/02 06:43:41;;;;;;;0.47;0.40;;;;;;;-2.43;84.50;98926.72;5050973;28;20029;-82
2021/12/02 06:46:07;;;;;;;2.17;0.60;;;;;;;-2.48;84.23;98936.25;5034216;28;20029;-82
2021/12/02 06:48:32;;;;;;;1.60;0.68;;;;;;;-2.49;84.10;98939.16;5031943;28;20032;-82
2021/12/02 06:50:57;;;;;;;3.08;0.73;;;;;;;-2.54;83.88;98941.69;5049883;28;20025;-82
2021/12/02 06:53:23;;;;;;;0.40;0.40;;;;;;;-2.59;84.22;98938.91;5039348;28;20025;-80
2021/12/02 06:55:48;;;;;;;2.05;0.75;;;;;;;-2.63;83.75;98943.13;5042610;28;20025;-81
2021/12/02 06:58:15;;;;;;;1.60;0.52;;;;;;;-2.66;83.72;98951.59;5045776;28;20048;-82
2021/12/02 07:00:40;;;;;;;1.08;0.52;;;;;;;-2.68;84.04;98954.47;5044216;28;20033;-81
2021/12/02 07:03:06;;;;;;;0.88;0.50;;;;;;;-2.72;83.81;98975.47;5033974;28;20079;-82
2021/12/02 07:05:33;;;;;;;1.17;0.50;;;;;;;-2.73;83.79;98965.03;5050879;28;20378;-81
2021/12/02 07:07:58;;;;;;;1.55;0.50;;;;;;;-2.77;83.57;98972.69;5051591;28;20055;-82
2021/12/02 07:10:25;;;;;;;1.17;0.70;;;;;;;-2.78;83.63;98989.72;5044404;28;20025;-83
2021/12/02 07:12:56;;;;;;;0.70;0.50;;;;;;;-2.81;83.79;98979.53;5050135;28;20080;-82
2021/12/02 07:15:27;;;;;;;1.02;0.40;;;;;;;-2.78;83.87;98988.94;5025500;28;20112;-82
2021/12/02 07:18:37;;;;;;;4.97;0.95;;;;;;;-2.78;83.66;98986.25;5054345;28;20099;-81
2021/12/02 07:20:42;;;;;;;0.98;0.52;;;;;;;-2.78;83.77;98991.59;5038292;28;20041;-81
2021/12/02 07:23:08;;;;;;;1.08;0.43;;;;;;;-2.79;83.66;98985.44;5058717;28;20025;-81
2021/12/02 07:25:33;;;;;;;0.68;0.47;;;;;;;-2.78;83.42;98995.06;5038107;28;20032;-81
2021/12/02 07:27:59;;;;;;;0.57;0.40;;;;;;;-2.79;83.55;99012.09;5041206;28;20435;-81
2021/12/02 07:30:24;;;;;;;0.90;0.47;;;;;;;-2.80;83.40;99009.66;5053418;28;20438;-81
2021/12/02 07:32:54;;;;;;;0.95;0.60;;;;;;;-2.81;83.61;99022.19;5051543;28;20029;-82
2021/12/02 07:35:20;;;;;;;0.75;0.73;;;;;;;-2.80;83.07;99018.47;5054600;28;20033;-81
2021/12/02 07:37:48;;;;;;;0.60;0.35;;;;;;;-2.83;82.81;99026.13;5047734;28;20031;-82
2021/12/02 07:40:14;;;;;;;0.82;0.55;;;;;;;-2.83;83.15;99026.94;5050570;28;20032;-81
2021/12/02 07:42:39;;;;;;;0.60;0.40;;;;;;;-2.81;82.97;99035.53;5056940;28;20028;-83
2021/12/02 07:45:05;;;;;;;3.15;0.88;;;;;;;-2.85;83.23;99045.00;5060905;28;20047;-80
2021/12/02 07:47:32;;;;;;;1.65;0.93;;;;;;;-2.86;83.44;99056.72;5053958;28;20021;-81
2021/12/02 07:49:57;;;;;;;0.80;0.68;;;;;;;-2.85;83.40;99068.22;5050891;28;20031;-80
2021/12/02 07:52:24;;;;;;;0.30;0.30;;;;;;;-2.86;83.21;99066.59;5036889;28;20029;-81
2021/12/02 07:54:51;;;;;;;0.93;0.82;;;;;;;-2.89;82.81;99067.88;5050279;28;20041;-82
2021/12/02 07:57:16;;;;;;;1.70;0.43;;;;;;;-2.90;83.19;99087.53;5054872;28;20079;-81
2021/12/02 07:59:41;;;;;;;1.30;0.57;;;;;;;-2.91;82.94;99080.59;5053491;28;20064;-81
2021/12/02 08:02:12;;;;;;;0.65;0.45;;;;;;;-2.93;83.10;99085.34;5054933;28;20025;-81
2021/12/02 08:04:37;;;;;;;1.73;0.60;;;;;;;-2.90;83.14;99091.03;5036509;28;20024;-81
2021/12/02 08:07:03;;;;;;;0.50;0.50;;;;;;;-2.91;82.96;99092.06;5046330;28;20033;-80
2021/12/02 08:09:28;;;;;;;1.00;0.57;;;;;;;-2.93;82.70;99104.00;5045251;28;20028;-80
2021/12/02 08:11:54;;;;;;;0.65;0.38;;;;;;;-2.93;82.97;99104.00;5054439;28;20523;-81
2021/12/02 08:14:19;;;;;;;2.13;0.55;;;;;;;-2.95;82.52;99109.56;5046091;28;20045;-80
2021/12/02 08:16:45;;;;;;;0.95;0.60;;;;;;;-2.96;83.00;99115.94;5053404;28;20031;-81
2021/12/02 08:19:10;;;;;;;0.77;0.50;;;;;;;-2.94;82.91;99105.06;5053580;28;20048;-80
2021/12/02 08:21:36;;;;;;;2.17;0.50;;;;;;;-2.94;83.16;99118.38;5051119;28;20485;-80
2021/12/02 08:24:01;;;;;;;3.83;0.80;;;;;;;-2.95;82.83;99117.56;5035206;28;20021;-80
2021/12/02 08:26:26;;;;;;;0.60;0.35;;;;;;;-2.95;83.05;99122.91;5048364;28;20475;-80
2021/12/02 08:28:52;;;;;;;0.95;0.32;;;;;;;-2.95;83.50;99111.41;5045325;28;20044;-80
2021/12/02 08:31:17;;;;;;;1.30;0.82;;;;;;;-2.91;82.96;99133.91;5061261;28;20028;-81
2021/12/02 08:33:43;;;;;;;0.52;0.35;;;;;;;-2.87;83.65;99143.09;5058006;28;20043;-81
2021/12/02 08:36:08;;;;;;;1.02;0.47;;;;;;;-2.84;83.10;99150.63;5053437;28;20035;-80
2021/12/02 08:38:36;;;;;;;1.85;0.80;;;;;;;-2.86;83.29;99158.06;5052720;28;20025;-81
2021/12/02 08:41:01;;;;;;;1.15;0.60;;;;;;;-2.84;83.13;99157.81;5038448;28;20484;-80
2021/12/02 08:43:26;;;;;;;1.00;0.68;;;;;;;-2.86;83.59;99163.38;5053823;28;20024;-81
2021/12/02 08:45:52;;;;;;;0.35;0.35;;;;;;;-2.87;83.69;99167.06;5038511;28;20062;-80
2021/12/02 08:48:17;;;;;;;0.40;0.32;;;;;;;-2.87;83.38;99163.59;5048461;28;20112;-80
2021/12/02 08:50:45;;;;;;;1.33;0.40;;;;;;;-2.86;83.47;99182.06;5019182;28;20458;-81
2021/12/02 08:53:11;;;;;;;0.60;0.40;;;;;;;-2.88;83.17;99185.97;5055695;28;20078;-81
2021/12/02 08:55:36;;;;;;;0.88;0.45;;;;;;;-2.92;83.20;99190.94;5040636;28;20033;-80
2021/12/02 08:58:04;;;;;;;1.38;0.82;;;;;;;-2.92;83.11;99188.25;5067426;28;20021;-80
2021/12/02 09:00:35;;;;;;;0.73;0.38;;;;;;;-2.93;82.92;99189.31;5030621;28;20030;-81
2021/12/02 09:03:01;;;;;;;0.98;0.57;;;;;;;-2.96;83.07;99200.44;5050611;28;20071;-81
2021/12/02 09:05:27;;;;;;;1.83;0.70;;;;;;;-3.00;82.71;99197.41;5054116;28;20036;-81
2021/12/02 09:07:52;;;;;;;1.40;0.47;;;;;;;-3.01;82.74;99202.94;5052188;28;20025;-81
2021/12/02 09:10:21;;;;;;;0.75;0.60;;;;;;;-3.03;82.97;99199.69;5052577;28;20036;-82
2021/12/02 09:12:46;;;;;;;2.03;0.60;;;;;;;-3.08;82.86;99191.53;5053298;28;20025;-80
2021/12/02 09:15:12;;;;;;;1.90;0.68;;;;;;;-3.13;82.97;99203.72;5061103;28;20067;-80
2021/12/02 09:17:39;;;;;;;1.58;0.85;;;;;;;-3.15;82.85;99213.78;5051453;28;20025;-81
2021/12/02 09:20:05;;;;;;;1.27;0.70;;;;;;;-3.20;83.03;99228.81;5052232;28;20028;-81
2021/12/02 09:22:30;;;;;;;1.80;0.95;;;;;;;-3.26;83.40;99221.69;5052934;28;20048;-81
2021/12/02 09:24:56;;;;;;;0.47;0.47;;;;;;;-3.28;82.77;99229.91;5052060;28;20090;-79
2021/12/02 09:27:21;;;;;;;1.50;0.63;;;;;;;-3.32;82.66;99226.06;5051009;28;20437;-81
2021/12/02 09:29:47;;;;;;;3.15;1.00;;;;;;;-3.37;82.64;99225.91;5052446;28;20021;-81
2021/12/02 09:32:12;;;;;;;3.05;0.80;;;;;;;-3.40;82.96;99232.50;5052338;28;20579;-81
2021/12/02 09:34:38;;;;;;;0.93;0.55;;;;;;;-3.42;82.80;99225.75;5062637;28;20036;-81
2021/12/02 09:37:03;;;;;;;1.77;0.50;;;;;;;-3.47;82.96;99236.25;5052847;28;20039;-81
2021/12/02 09:39:33;;;;;;;1.38;0.80;;;;;;;-3.52;82.76;99244.94;5052165;28;20029;-81
2021/12/02 09:41:59;;;;;;;2.03;0.90;;;;;;;-3.54;82.73;99240.84;5048851;28;20028;-82
2021/12/02 09:44:24;;;;;;;1.13;0.70;;;;;;;-3.57;82.64;99245.59;5050597;28;20082;-81
2021/12/02 09:46:50;;;;;;;2.55;0.88;;;;;;;-3.61;82.43;99247.03;5047737;28;20079;-82
2021/12/02 09:49:16;;;;;;;0.98;0.80;;;;;;;-3.63;82.70;99249.13;5033980;28;20096;-82
2021/12/02 09:54:24;;;;;;;2.78;1.10;;;;;;;-3.65;82.60;99253.84;5054278;28;20039;-82
2021/12/02 09:56:52;;;;;;;2.08;0.80;;;;;;;-3.65;83.06;99261.03;5053307;28;20029;-82
2021/12/02 09:59:30;;;;;;;1.02;0.65;;;;;;;-3.64;83.05;99267.97;5052742;28;20031;-80
2021/12/02 10:02:09;;;;;;;2.47;0.90;;;;;;;-3.61;82.58;99262.22;5036597;28;20474;-81
2021/12/02 10:04:55;;;;;;;1.50;0.50;;;;;;;-3.61;83.15;99263.00;5036396;28;20112;-80
2021/12/02 10:10:09;;;;;;;1.48;0.80;;;;;;;-3.59;82.62;99268.13;5048347;28;20053;-80
2021/12/02 10:12:37;;;;;;;1.73;0.63;;;;;;;-3.54;82.98;99270.16;5036442;28;20020;-80
2021/12/02 10:15:08;;;;;;;2.30;0.80;;;;;;;-3.53;82.60;99269.13;5028360;28;20046;-81
2021/12/02 10:20:25;;;;;;;6.38;1.10;;;;;;;-3.49;83.06;99264.97;5051414;28;20028;-82
2021/12/02 10:25:58;;;;;;;3.38;1.10;;;;;;;-3.42;83.13;99271.06;5051561;28;20060;-81
2021/12/02 10:28:25;;;;;;;3.13;1.10;;;;;;;-3.40;83.31;99271.66;5040208;28;20544;-82
2021/12/02 10:31:01;;;;;;;1.80;0.70;;;;;;;-3.39;82.88;99270.59;5037012;28;20066;-80
2021/12/02 10:33:40;;;;;;;3.45;0.70;;;;;;;-3.39;83.09;99286.59;5051391;28;20107;-81
2021/12/02 10:36:27;;;;;;;2.63;0.82;;;;;;;-3.39;82.81;99287.41;5036530;28;20047;-81
2021/12/02 10:38:54;;;;;;;2.50;0.85;;;;;;;-3.36;83.11;99292.31;5069131;28;20039;-81
2021/12/02 10:41:24;;;;;;;1.30;0.70;;;;;;;-3.35;82.61;99287.81;5051279;28;20029;-81
2021/12/02 10:44:01;;;;;;;1.63;0.88;;;;;;;-3.32;83.25;99282.03;5047004;28;20025;-81
2021/12/02 10:46:27;;;;;;;3.10;1.50;;;;;;;-3.32;82.70;99282.03;5050454;28;20028;-82
2021/12/02 10:48:52;;;;;;;2.33;0.98;;;;;;;-3.29;83.11;99280.78;5051935;28;20096;-80
2021/12/02 10:51:54;;;;;;;10.35;4.43;;;;;;;-3.28;82.82;99277.88;5027833;28;20419;-81
2021/12/02 10:54:23;;;;;;;1.55;0.75;;;;;;;-3.25;83.03;99287.28;4953967;28;20060;-82
2021/12/02 10:56:50;;;;;;;1.52;0.60;;;;;;;-3.22;82.56;99290.34;5009802;28;20061;-81
2021/12/02 10:59:32;;;;;;;1.35;0.50;;;;;;;-3.20;83.02;99288.25;5052067;28;20185;-82
2021/12/02 11:02:00;;;;;;;0.88;0.40;;;;;;;-3.17;82.87;99295.78;5044841;28;20032;-81
2021/12/02 11:04:27;;;;;;;0.22;0.22;;;;;;;-3.17;82.63;99295.78;5069302;28;20029;-82
2021/12/02 11:07:00;;;;;;;1.27;0.40;;;;;;;-3.17;82.81;99295.78;5041433;28;20543;-81
2021/12/02 11:09:29;;;;;;;0.57;0.55;;;;;;;-3.15;82.19;99293.72;5037603;28;20362;-81
2021/12/02 11:12:06;;;;;;;0.55;0.30;;;;;;;-3.09;82.36;99296.56;5051322;28;20025;-81
2021/12/02 11:14:32;;;;;;;0.47;0.40;;;;;;;-3.07;82.22;99299.81;5037649;28;20049;-82
2021/12/02 11:17:14;;;;;;;0.52;0.35;;;;;;;-3.06;82.33;99302.25;5036292;28;20028;-81
2021/12/02 11:19:47;;;;;;;0.70;0.60;;;;;;;-3.01;82.49;99296.25;5035405;28;20367;-81
2021/12/02 11:22:17;;;;;;;2.35;0.73;;;;;;;-2.97;82.03;99297.47;5023355;28;20504;-82
2021/12/02 11:24:43;;;;;;;0.43;0.40;;;;;;;-2.95;82.58;99301.53;5047919;28;20461;-81
2021/12/02 11:27:09;;;;;;;1.00;0.60;;;;;;;-2.89;82.07;99302.50;5041613;28;20028;-81
2021/12/02 11:29:50;;;;;;;1.48;1.00;;;;;;;-2.88;82.37;99304.13;5057391;28;20016;-82
2021/12/02 11:32:46;;;;;;;0.93;0.70;;;;;;;-2.85;81.74;99302.84;5049776;28;20431;-80
2021/12/02 11:35:22;;;;;;;2.13;0.80;;;;;;;-2.85;81.84;99303.66;5043933;28;20036;-80
2021/12/02 11:37:50;;;;;;;0.98;0.60;;;;;;;-2.81;81.59;99310.19;5067688;28;20020;-79
2021/12/02 11:40:23;;;;;;;0.85;0.60;;;;;;;-2.78;81.86;99319.59;5054622;28;20017;-80
2021/12/02 11:42:50;;;;;;;1.00;0.47;;;;;;;-2.74;81.55;99321.59;5031677;28;20021;-80
2021/12/02 11:45:16;;;;;;;1.38;1.27;;;;;;;-2.70;81.90;99322.78;5026111;28;20553;-79
2021/12/02 11:47:42;;;;;;;1.67;0.90;;;;;;;-2.63;82.00;99327.22;5050296;28;20111;-81
2021/12/02 11:50:09;;;;;;;1.58;0.80;;;;;;;-2.58;81.67;99325.50;5063471;28;20071;-81
2021/12/02 11:52:36;;;;;;;2.42;0.70;;;;;;;-2.51;81.33;99325.41;5034356;28;20048;-81
2021/12/02 11:55:03;;;;;;;1.70;0.60;;;;;;;-2.47;81.56;99323.94;5029130;28;20025;-80
2021/12/02 11:57:30;;;;;;;1.67;0.80;;;;;;;-2.41;81.45;99333.72;5049450;28;20044;-79
2021/12/02 11:59:56;;;;;;;0.80;0.55;;;;;;;-2.36;81.03;99331.19;5039422;28;20020;-80
2021/12/02 12:02:21;;;;;;;1.65;0.85;;;;;;;-2.28;81.30;99330.88;5055006;28;20051;-80